Time;durP1;ratioP1;P1;durP2;ratioP2;P2;SDS_P1;SDS_P2;PMS_P1;PMS_P2;Temp;Humidity;BMP_temperature;BMP_pressure;BME280_temperature;BME280_humidity;BME280_pressure;Samples;Min_cycle;Max_cycle;Signal;HPM_P1;HPM_P2
2021/10/01 00:01:43;;;;;;;55.22;38.83;;;16.00;99.90;;;;;;5013976;28;20033;-49
2021/10/01 00:04:10;;;;;;;64.07;39.60;;;16.00;99.90;;;;;;4994410;28;20034;-48
2021/10/01 00:06:35;;;;;;;64.38;39.67;;;16.00;99.90;;;;;;5010659;28;20339;-48
2021/10/01 00:09:01;;;;;;;68.25;40.75;;;16.10;99.90;;;;;;5013514;28;20038;-50
2021/10/01 00:11:27;;;;;;;64.32;39.78;;;16.00;99.90;;;;;;5014403;28;20441;-49
2021/10/01 00:13:53;;;;;;;64.78;38.53;;;16.00;99.90;;;;;;5015407;28;20030;-48
2021/10/01 00:16:18;;;;;;;64.68;39.58;;;16.00;99.90;;;;;;5010374;28;20033;-47
2021/10/01 00:18:44;;;;;;;66.90;40.85;;;15.80;99.90;;;;;;4986676;28;20061;-48
2021/10/01 00:21:10;;;;;;;63.85;39.95;;;15.80;99.90;;;;;;4960207;28;20030;-48
2021/10/01 00:23:36;;;;;;;65.75;40.03;;;15.90;99.90;;;;;;5011062;28;20425;-48
2021/10/01 00:26:03;;;;;;;65.70;41.33;;;15.90;99.90;;;;;;5027739;28;20037;-48
2021/10/01 00:28:29;;;;;;;61.55;39.88;;;16.00;99.90;;;;;;5015473;28;20061;-48
2021/10/01 00:30:56;;;;;;;63.72;40.30;;;15.90;99.90;;;;;;4992708;28;20049;-47
2021/10/01 00:33:22;;;;;;;66.63;41.75;;;15.90;99.90;;;;;;5009695;28;20038;-48
2021/10/01 00:35:48;;;;;;;65.30;41.63;;;15.90;99.90;;;;;;5011072;28;20029;-48
2021/10/01 00:38:14;;;;;;;63.55;39.55;;;16.00;99.90;;;;;;5015496;28;20176;-48
2021/10/01 00:40:40;;;;;;;62.78;39.08;;;16.00;99.90;;;;;;5011730;28;20133;-48
2021/10/01 00:43:06;;;;;;;61.67;38.47;;;16.10;99.90;;;;;;5012194;28;20116;-48
2021/10/01 00:45:32;;;;;;;66.75;40.63;;;16.00;99.90;;;;;;4964850;28;20534;-49
2021/10/01 00:47:58;;;;;;;70.45;41.38;;;16.10;99.90;;;;;;5015497;28;20030;-48
2021/10/01 00:50:24;;;;;;;68.53;38.88;;;16.00;99.90;;;;;;5013573;28;20048;-47
2021/10/01 00:52:50;;;;;;;61.90;38.80;;;16.00;99.90;;;;;;5011784;28;20021;-48
2021/10/01 00:55:17;;;;;;;62.47;39.38;;;16.10;99.90;;;;;;4965707;28;20049;-48
2021/10/01 00:57:42;;;;;;;65.70;39.55;;;16.10;99.90;;;;;;5013482;28;20041;-49
2021/10/01 01:00:19;;;;;;;67.47;40.05;;;16.10;99.90;;;;;;5011974;28;20120;-48
2021/10/01 01:02:45;;;;;;;73.00;42.30;;;16.00;99.90;;;;;;5013988;28;20037;-48
2021/10/01 01:05:11;;;;;;;67.72;39.83;;;16.00;99.90;;;;;;4976515;28;20445;-47
2021/10/01 01:07:54;;;;;;;72.70;41.00;;;15.80;99.90;;;;;;5015419;28;20515;-49
2021/10/01 01:10:19;;;;;;;;;;;15.70;99.90;;;;;;5012257;28;20034;-47
2021/10/01 01:12:54;;;;;;;63.72;40.53;;;15.80;99.90;;;;;;4976730;28;19910;-48
2021/10/01 01:15:29;;;;;;;69.70;41.60;;;15.80;99.90;;;;;;5011066;28;20030;-48
2021/10/01 01:18:07;;;;;;;65.72;39.95;;;15.90;99.90;;;;;;5013049;28;20109;-48
2021/10/01 01:20:42;;;;;;;68.97;41.40;;;15.90;99.90;;;;;;5013436;28;20025;-48
2021/10/01 01:23:38;;;;;;;67.05;40.83;;;16.00;99.90;;;;;;5011619;28;20083;-48
2021/10/01 01:26:36;;;;;;;76.88;43.65;;;15.90;99.90;;;;;;5003508;28;20022;-48
2021/10/01 01:29:34;;;;;;;65.55;41.38;;;15.80;99.90;;;;;;4952642;28;20065;-48
2021/10/01 01:32:01;;;;;;;68.70;41.47;;;15.80;99.90;;;;;;4954246;28;20055;-48
2021/10/01 01:34:39;;;;;;;70.28;41.05;;;15.90;99.90;;;;;;4953099;28;20031;-48
2021/10/01 01:37:13;;;;;;;76.18;42.22;;;15.80;99.90;;;;;;4953818;28;20058;-48
2021/10/01 01:39:40;;;;;;;74.88;42.70;;;15.90;99.90;;;;;;4938128;29;20447;-49
2021/10/01 01:42:07;;;;;;;62.80;40.33;;;16.00;99.90;;;;;;4953473;28;20035;-49
2021/10/01 01:44:34;;;;;;;67.47;39.42;;;16.10;99.90;;;;;;4952644;28;20047;-50
2021/10/01 01:47:01;;;;;;;70.88;43.30;;;16.10;99.90;;;;;;4953610;28;20027;-48
2021/10/01 01:49:30;;;;;;;71.78;41.03;;;16.20;99.90;;;;;;4953778;28;20117;-49
2021/10/01 01:52:00;;;;;;;66.43;39.92;;;16.10;99.90;;;;;;4949567;28;20059;-49
2021/10/01 01:54:27;;;;;;;67.28;40.15;;;16.10;99.90;;;;;;4954041;28;20128;-48
2021/10/01 01:56:54;;;;;;;67.95;42.78;;;16.20;99.90;;;;;;4953623;28;20050;-48
2021/10/01 01:59:21;;;;;;;69.70;42.03;;;16.10;99.90;;;;;;4952015;28;20047;-48
2021/10/01 02:01:48;;;;;;;67.05;41.35;;;16.10;99.90;;;;;;4953487;28;20046;-48
2021/10/01 02:04:16;;;;;;;64.28;40.63;;;16.10;99.90;;;;;;4926132;28;20533;-48
2021/10/01 02:06:43;;;;;;;65.13;39.90;;;16.10;99.90;;;;;;5011940;28;20053;-49
2021/10/01 02:09:11;;;;;;;61.83;41.10;;;16.10;99.90;;;;;;5011565;28;20022;-49
2021/10/01 02:11:40;;;;;;;63.10;40.35;;;16.10;99.90;;;;;;5009699;28;20041;-49
2021/10/01 02:14:07;;;;;;;66.03;39.00;;;16.10;99.90;;;;;;5011237;28;20040;-49
2021/10/01 02:16:33;;;;;;;62.58;39.67;;;16.10;99.90;;;;;;4994137;28;20130;-50
2021/10/01 02:19:01;;;;;;;58.92;38.70;;;16.10;99.90;;;;;;5013816;28;20117;-49
2021/10/01 02:21:27;;;;;;;62.72;39.85;;;16.10;99.90;;;;;;5010028;28;20033;-48
2021/10/01 02:23:54;;;;;;;63.90;40.08;;;16.10;99.90;;;;;;5013643;28;20076;-49
2021/10/01 02:26:56;;;;;;;64.53;40.50;;;15.90;99.90;;;;;;5010692;28;20040;-48
2021/10/01 02:29:26;;;;;;;57.08;38.60;;;15.90;99.90;;;;;;4954078;28;20105;-48
2021/10/01 02:32:18;;;;;;;62.13;40.63;;;16.00;99.90;;;;;;4921482;29;20047;-48
2021/10/01 02:34:46;;;;;;;64.13;38.55;;;16.10;99.90;;;;;;4875324;29;20037;-49
2021/10/01 02:37:13;;;;;;;64.97;40.53;;;16.10;99.90;;;;;;4861940;29;20037;-49
2021/10/01 02:39:42;;;;;;;67.85;40.75;;;16.10;99.90;;;;;;4877511;29;20057;-49
2021/10/01 02:42:09;;;;;;;64.72;40.17;;;16.10;99.90;;;;;;4877660;29;20041;-48
2021/10/01 02:44:35;;;;;;;76.57;41.88;;;16.10;99.90;;;;;;4877229;29;20462;-49
2021/10/01 02:47:01;;;;;;;62.33;40.85;;;16.00;99.90;;;;;;4877415;29;20037;-48
2021/10/01 02:49:28;;;;;;;62.42;39.80;;;16.10;99.90;;;;;;4878021;29;20053;-49
2021/10/01 02:51:58;;;;;;;73.43;42.53;;;16.00;99.90;;;;;;4877381;29;20041;-50
2021/10/01 02:54:33;;;;;;;72.18;42.05;;;16.00;99.90;;;;;;4878268;29;20043;-48
2021/10/01 02:57:10;;;;;;;65.18;38.95;;;16.00;99.90;;;;;;4877009;29;20045;-48
2021/10/01 02:59:41;;;;;;;65.60;39.15;;;16.00;99.90;;;;;;4877251;29;20041;-49
2021/10/01 03:02:09;;;;;;;71.88;39.53;;;15.90;99.90;;;;;;4877347;29;20080;-48
2021/10/01 03:04:36;;;;;;;62.15;40.00;;;15.90;99.90;;;;;;4881097;29;20047;-49
2021/10/01 03:07:04;;;;;;;66.35;39.47;;;15.90;99.90;;;;;;4931896;29;20038;-48
2021/10/01 03:09:32;;;;;;;71.60;39.97;;;16.00;99.90;;;;;;4923014;29;20043;-48
2021/10/01 03:12:00;;;;;;;65.38;39.58;;;16.00;99.90;;;;;;4979355;28;20177;-48
2021/10/01 03:14:27;;;;;;;66.82;39.45;;;16.10;99.90;;;;;;5010796;28;20381;-47
2021/10/01 03:16:55;;;;;;;59.88;39.05;;;16.10;99.90;;;;;;4962124;28;20038;-49
2021/10/01 03:19:22;;;;;;;65.90;38.13;;;16.10;99.90;;;;;;5010643;28;20058;-49
2021/10/01 03:21:56;;;;;;;65.53;38.38;;;16.20;99.90;;;;;;5010202;28;20146;-49
2021/10/01 03:24:23;;;;;;;63.88;38.92;;;16.10;99.90;;;;;;5014721;28;20034;-53
2021/10/01 03:26:51;;;;;;;61.00;37.97;;;16.20;99.90;;;;;;5013829;28;20118;-50
2021/10/01 03:29:18;;;;;;;63.83;37.70;;;16.20;99.90;;;;;;5012530;28;20030;-48
2021/10/01 03:31:45;;;;;;;62.38;37.38;;;16.20;99.90;;;;;;5013476;28;20041;-50
2021/10/01 03:34:11;;;;;;;68.10;40.10;;;16.20;99.90;;;;;;5010535;28;20358;-50
2021/10/01 03:36:37;;;;;;;70.75;38.60;;;16.20;99.90;;;;;;5013550;28;20048;-52
2021/10/01 03:39:03;;;;;;;61.63;38.58;;;16.20;99.90;;;;;;5013504;28;20054;-51
2021/10/01 03:41:29;;;;;;;61.72;37.35;;;16.20;99.90;;;;;;5012905;28;20389;-48
2021/10/01 03:43:56;;;;;;;65.30;36.17;;;16.30;99.90;;;;;;5014643;28;20017;-48
2021/10/01 03:46:22;;;;;;;61.40;37.97;;;16.20;99.90;;;;;;5016065;28;20123;-48
2021/10/01 03:48:49;;;;;;;64.93;37.55;;;16.20;99.90;;;;;;5014978;28;20149;-48
2021/10/01 03:51:15;;;;;;;67.85;38.67;;;16.20;99.90;;;;;;5015170;28;20069;-49
2021/10/01 03:53:41;;;;;;;69.00;38.28;;;16.20;99.90;;;;;;5013358;28;20018;-48
2021/10/01 03:56:14;;;;;;;58.72;38.55;;;16.20;99.90;;;;;;5010066;28;20525;-48
2021/10/01 03:58:40;;;;;;;69.00;37.25;;;16.20;99.90;;;;;;5014549;28;20087;-49
2021/10/01 04:01:05;;;;;;;63.30;36.92;;;16.10;99.90;;;;;;4995295;28;20030;-48
2021/10/01 04:03:31;;;;;;;61.75;38.30;;;16.20;99.90;;;;;;4995557;28;20444;-48
2021/10/01 04:05:57;;;;;;;66.45;38.35;;;16.20;99.90;;;;;;4990836;28;20122;-49
2021/10/01 04:08:23;;;;;;;64.78;36.53;;;16.20;99.90;;;;;;5014614;28;20034;-47
2021/10/01 04:10:48;;;;;;;65.65;37.13;;;16.30;99.90;;;;;;5013415;28;20088;-49
2021/10/01 04:13:14;;;;;;;67.97;37.95;;;16.30;99.90;;;;;;5014132;28;20509;-48
2021/10/01 04:15:40;;;;;;;59.10;37.20;;;16.30;99.90;;;;;;5011750;28;20053;-49
2021/10/01 04:18:06;;;;;;;62.95;37.38;;;16.30;99.90;;;;;;5015106;28;20033;-49
2021/10/01 04:20:34;;;;;;;64.30;38.97;;;16.30;99.90;;;;;;4991795;28;20397;-48
2021/10/01 04:23:00;;;;;;;69.68;39.22;;;16.30;99.90;;;;;;5013163;28;20092;-48
2021/10/01 04:25:26;;;;;;;66.45;39.17;;;16.30;99.90;;;;;;4960952;28;20454;-48
2021/10/01 04:27:52;;;;;;;66.03;39.53;;;16.30;99.90;;;;;;4995438;28;20041;-47
2021/10/01 04:30:18;;;;;;;66.55;38.67;;;16.30;99.90;;;;;;5012901;28;20053;-48
2021/10/01 04:32:47;;;;;;;58.95;37.70;;;16.30;99.90;;;;;;4998450;28;20069;-48
2021/10/01 04:35:12;;;;;;;56.20;36.85;;;16.30;99.90;;;;;;5014141;28;20034;-48
2021/10/01 04:37:38;;;;;;;65.43;38.78;;;16.30;99.90;;;;;;5013062;28;20488;-48
2021/10/01 04:40:04;;;;;;;70.20;39.10;;;16.40;99.90;;;;;;5013293;28;20044;-48
2021/10/01 04:42:30;;;;;;;59.88;37.55;;;16.40;99.90;;;;;;4981010;28;20038;-48
2021/10/01 04:44:56;;;;;;;60.45;37.78;;;16.40;99.90;;;;;;5014248;28;20362;-48
2021/10/01 04:47:22;;;;;;;65.38;39.40;;;16.40;99.90;;;;;;5012556;28;20034;-48
2021/10/01 04:49:48;;;;;;;71.55;38.45;;;16.40;99.90;;;;;;5015528;28;20109;-48
2021/10/01 04:52:13;;;;;;;62.88;38.20;;;16.30;99.90;;;;;;5011671;28;20425;-48
2021/10/01 04:54:39;;;;;;;62.70;39.38;;;16.40;99.90;;;;;;5012180;28;20029;-48
2021/10/01 04:57:07;;;;;;;64.47;38.85;;;16.30;99.90;;;;;;5024845;28;20046;-48
2021/10/01 04:59:33;;;;;;;61.28;37.45;;;16.30;99.90;;;;;;4993540;28;20049;-48
2021/10/01 05:01:59;;;;;;;66.20;37.92;;;16.30;99.90;;;;;;5010190;28;20034;-47
2021/10/01 05:04:24;;;;;;;61.03;37.97;;;16.40;99.90;;;;;;5012929;28;20065;-48
2021/10/01 05:06:50;;;;;;;60.63;37.65;;;16.40;99.90;;;;;;4963497;28;20038;-48
2021/10/01 05:09:16;;;;;;;59.70;36.35;;;16.40;99.90;;;;;;5011948;28;20033;-47
2021/10/01 05:11:42;;;;;;;62.45;38.95;;;16.50;99.90;;;;;;5011635;28;20533;-48
2021/10/01 05:14:07;;;;;;;64.72;38.80;;;16.50;99.90;;;;;;5015267;28;20029;-48
2021/10/01 05:16:33;;;;;;;61.25;38.58;;;16.50;99.90;;;;;;5011132;28;20022;-47
2021/10/01 05:18:59;;;;;;;69.55;39.13;;;16.40;99.90;;;;;;5014912;28;20092;-48
2021/10/01 05:21:25;;;;;;;67.28;38.85;;;16.40;99.90;;;;;;5011539;28;20088;-47
2021/10/01 05:23:50;;;;;;;68.22;39.65;;;16.50;99.90;;;;;;4988290;28;20069;-49
2021/10/01 05:26:16;;;;;;;68.90;40.40;;;16.50;99.90;;;;;;4994903;28;20034;-48
2021/10/01 05:28:42;;;;;;;58.97;38.80;;;16.60;99.90;;;;;;4998489;28;20110;-48
2021/10/01 05:31:08;;;;;;;71.30;39.13;;;16.60;99.90;;;;;;5012516;28;20042;-49
2021/10/01 05:33:34;;;;;;;70.63;39.05;;;16.70;99.90;;;;;;5009575;28;20121;-49
2021/10/01 05:35:59;;;;;;;75.47;41.88;;;16.60;99.90;;;;;;5012091;28;20038;-48
2021/10/01 05:38:25;;;;;;;79.82;40.80;;;16.60;99.90;;;;;;5011417;28;20049;-48
2021/10/01 05:40:52;;;;;;;78.63;40.88;;;16.60;99.90;;;;;;5026363;28;20042;-48
2021/10/01 05:43:24;;;;;;;80.15;40.55;;;16.50;99.90;;;;;;5010464;28;20034;-49
2021/10/01 05:45:51;;;;;;;;;;;16.60;99.90;;;;;;5010074;28;20576;-49
2021/10/01 05:48:17;;;;;;;74.20;40.50;;;16.30;99.90;;;;;;5011283;28;19909;-48
2021/10/01 05:50:44;;;;;;;73.55;38.60;;;16.10;99.90;;;;;;5005673;28;20064;-48
2021/10/01 05:53:25;;;;;;;71.63;40.55;;;16.00;99.90;;;;;;5007972;28;20042;-49
2021/10/01 05:55:51;;;;;;;74.13;39.78;;;15.90;99.90;;;;;;5006044;28;20497;-49
2021/10/01 05:58:17;;;;;;;78.53;41.03;;;15.80;99.90;;;;;;5007176;28;20038;-48
2021/10/01 06:00:43;;;;;;;73.63;39.15;;;15.70;99.90;;;;;;4988904;28;20045;-49
2021/10/01 06:03:09;;;;;;;76.80;39.25;;;15.80;99.90;;;;;;4956121;28;20042;-47
2021/10/01 06:05:34;;;;;;;79.47;43.00;;;15.70;99.90;;;;;;5011496;28;20029;-47
2021/10/01 06:08:00;;;;;;;80.63;42.13;;;15.90;99.90;;;;;;5011901;28;20105;-48
2021/10/01 06:10:26;;;;;;;69.50;39.30;;;15.70;99.90;;;;;;5018899;28;20049;-47
2021/10/01 06:12:52;;;;;;;77.53;40.38;;;15.80;99.90;;;;;;5008959;28;20030;-48
2021/10/01 06:15:18;;;;;;;76.80;43.15;;;15.80;99.90;;;;;;5009150;28;20525;-49
2021/10/01 06:17:44;;;;;;;72.05;38.42;;;15.90;99.90;;;;;;5010029;28;20022;-48
2021/10/01 06:20:10;;;;;;;76.53;41.42;;;15.80;99.90;;;;;;5010149;28;20445;-48
2021/10/01 06:22:38;;;;;;;68.75;40.00;;;15.80;99.90;;;;;;5009306;28;20033;-48
2021/10/01 06:25:04;;;;;;;74.63;41.22;;;15.90;99.90;;;;;;4993334;28;20478;-47
2021/10/01 06:27:30;;;;;;;83.43;45.30;;;15.80;99.90;;;;;;4993326;28;20390;-50
2021/10/01 06:29:57;;;;;;;86.55;44.97;;;15.80;99.90;;;;;;5011669;28;20087;-48
2021/10/01 06:32:23;;;;;;;75.20;41.78;;;15.80;99.90;;;;;;5008920;28;20431;-48
2021/10/01 06:34:50;;;;;;;70.45;42.17;;;15.90;99.90;;;;;;5012079;28;20060;-47
2021/10/01 06:37:17;;;;;;;70.30;39.80;;;15.90;99.90;;;;;;4992512;28;20045;-48
2021/10/01 06:39:42;;;;;;;67.10;38.90;;;16.10;99.90;;;;;;5006132;28;20052;-48
2021/10/01 06:42:12;;;;;;;62.67;40.58;;;16.30;99.90;;;;;;4984745;28;20051;-47
2021/10/01 06:44:38;;;;;;;69.75;39.00;;;16.30;99.90;;;;;;4992736;28;20046;-49
2021/10/01 06:47:10;;;;;;;65.68;39.92;;;16.50;99.90;;;;;;4998215;28;20049;-57
2021/10/01 08:19:47;;;;;;;42.33;32.75;;;18.90;99.90;;;;;;5011878;28;20049;-56
2021/10/01 08:22:13;;;;;;;44.15;30.48;;;18.90;99.90;;;;;;5014995;28;20480;-56
2021/10/01 08:24:39;;;;;;;42.30;30.60;;;19.00;99.90;;;;;;5011254;28;20036;-56
2021/10/01 08:27:05;;;;;;;44.53;30.67;;;19.30;99.90;;;;;;5013405;28;20026;-56
2021/10/01 08:29:33;;;;;;;41.33;30.55;;;19.20;99.90;;;;;;5013581;28;20382;-56
2021/10/01 08:32:02;;;;;;;40.70;30.42;;;19.00;99.90;;;;;;5013346;28;20034;-56
2021/10/01 08:34:30;;;;;;;36.60;27.45;;;19.10;99.90;;;;;;5014167;28;20038;-55
2021/10/01 08:36:58;;;;;;;34.05;27.00;;;18.80;99.90;;;;;;5009787;28;20037;-56
2021/10/01 08:39:24;;;;;;;37.63;26.15;;;18.80;99.90;;;;;;5013586;28;20100;-55
2021/10/01 08:41:50;;;;;;;39.17;27.40;;;19.20;99.90;;;;;;4992145;28;20042;-55
2021/10/01 08:44:18;;;;;;;33.67;24.65;;;19.80;99.90;;;;;;5012993;28;20483;-56
2021/10/01 08:46:48;;;;;;;27.55;21.42;;;20.00;99.90;;;;;;5008985;28;20022;-56
2021/10/01 08:49:14;;;;;;;28.45;21.00;;;19.30;99.90;;;;;;5014677;28;20107;-56
2021/10/01 08:51:41;;;;;;;33.78;24.65;;;19.30;99.90;;;;;;5009462;28;20045;-56
2021/10/01 08:54:07;;;;;;;32.85;25.00;;;19.60;99.90;;;;;;5012986;28;20100;-55
2021/10/01 08:56:34;;;;;;;31.48;24.95;;;19.80;99.90;;;;;;5012443;28;20104;-55
2021/10/01 08:59:00;;;;;;;31.83;24.48;;;20.10;99.90;;;;;;5014010;28;20026;-55
2021/10/01 09:01:26;;;;;;;33.50;25.23;;;;;;;;;;5009487;28;20034;-55
2021/10/01 09:03:52;;;;;;;33.80;24.58;;;;;;;;;;5007054;28;20037;-55
2021/10/01 09:06:19;;;;;;;36.13;26.17;;;;;;;;;;4989443;28;20045;-50
2021/10/01 09:08:56;;;;;;;30.42;23.67;;;;;;;;;;5003576;28;20076;-50
2021/10/01 09:11:49;;;;;;;25.88;21.70;;;;;;;;;;5013535;28;20049;-49
2021/10/01 09:14:18;;;;;;;33.67;21.08;;;;;;;;;;5006510;28;20506;-49
2021/10/01 09:16:45;;;;;;;31.02;21.70;;;;;;;;;;5013084;28;20034;-49
2021/10/01 09:19:11;;;;;;;28.15;21.63;;;;;;;;;;5008883;28;20053;-49
2021/10/01 09:21:50;;;;;;;26.85;18.42;;;22.20;99.90;;;;;;5012208;28;20042;-50
2021/10/01 09:24:18;;;;;;;24.65;19.92;;;21.90;99.90;;;;;;5009951;28;20032;-51
2021/10/01 09:26:55;;;;;;;24.42;18.67;;;;;;;;;;5010447;28;20033;-48
2021/10/01 09:29:24;;;;;;;20.25;17.25;;;;;;;;;;5013322;28;20025;-48
2021/10/01 09:31:51;;;;;;;30.42;21.38;;;24.30;99.90;;;;;;5009407;28;20056;-50
2021/10/01 09:34:32;;;;;;;24.20;19.90;;;24.70;99.90;;;;;;5010727;28;20109;-49
2021/10/01 09:36:58;;;;;;;25.42;18.88;;;25.30;99.90;;;;;;5008979;28;20030;-48
2021/10/01 09:39:26;;;;;;;21.88;16.90;;;;;;;;;;5009240;28;20054;-50
2021/10/01 09:41:52;;;;;;;22.67;16.88;;;;;;;;;;5008735;28;20037;-51
2021/10/01 09:44:19;;;;;;;22.17;17.88;;;;;;;;;;5008897;28;20441;-49
2021/10/01 09:46:47;;;;;;;22.45;17.60;;;;;;;;;;5006597;28;20030;-50
2021/10/01 09:49:15;;;;;;;23.15;17.52;;;27.30;95.00;;;;;;5005504;28;20031;-50
2021/10/01 09:51:51;;;;;;;20.58;14.93;;;27.50;96.00;;;;;;5009321;28;20046;-50
2021/10/01 09:54:20;;;;;;;23.95;18.58;;;27.20;94.10;;;;;;4995318;28;20103;-48
2021/10/01 09:56:47;;;;;;;21.83;17.23;;;26.00;93.50;;;;;;5006285;28;20091;-50
2021/10/01 09:59:19;;;;;;;19.67;14.25;;;26.60;94.20;;;;;;5008840;28;20042;-50
2021/10/01 10:02:10;;;;;;;19.85;16.35;;;26.70;92.20;;;;;;5003849;28;20037;-52
2021/10/01 10:04:55;;;;;;;18.80;16.20;;;26.60;92.90;;;;;;5003400;28;20041;-51
2021/10/01 10:07:26;;;;;;;18.98;13.20;;;26.70;91.60;;;;;;4955331;28;20081;-51
2021/10/01 10:10:02;;;;;;;17.65;12.63;;;26.30;90.80;;;;;;5007437;28;20061;-52
2021/10/01 10:12:34;;;;;;;18.20;11.95;;;26.50;90.60;;;;;;4992437;28;20128;-54
2021/10/01 10:15:01;;;;;;;17.58;11.02;;;;;;;;;;5007640;28;20045;-49
2021/10/01 10:17:28;;;;;;;17.23;12.55;;;;;;;;;;5008567;28;20088;-49
2021/10/01 10:19:58;;;;;;;15.80;11.35;;;;;;;;;;5009492;28;20116;-49
2021/10/01 10:22:25;;;;;;;17.27;11.13;;;;;;;;;;5008968;28;20037;-50
2021/10/01 10:24:52;;;;;;;15.65;11.55;;;28.70;85.50;;;;;;5008186;28;20046;-50
2021/10/01 10:27:19;;;;;;;12.55;10.05;;;28.20;83.30;;;;;;4990995;28;20045;-50
2021/10/01 10:29:46;;;;;;;13.85;9.55;;;;;;;;;;5009985;28;20049;-50
2021/10/01 10:32:14;;;;;;;14.07;10.15;;;;;;;;;;5007282;28;20117;-51
2021/10/01 10:34:59;;;;;;;14.00;11.52;;;;;;;;;;5010978;28;20362;-44
2021/10/01 10:37:53;;;;;;;18.27;10.15;;;27.70;79.40;;;;;;5009805;28;20042;-51
2021/10/01 10:40:20;;;;;;;17.05;10.93;;;;;;;;;;5009012;28;20041;-53
2021/10/01 10:42:47;;;;;;;17.25;11.57;;;;;;;;;;5003594;28;20046;-51
2021/10/01 10:45:20;;;;;;;14.57;11.30;;;;;;;;;;5003241;28;20500;-51
2021/10/01 10:47:48;;;;;;;18.17;12.15;;;;;;;;;;5010013;28;20026;-61
2021/10/01 10:50:33;;;;;;;14.68;11.13;;;;;;;;;;5003744;28;20066;-54
2021/10/01 10:53:02;;;;;;;16.45;9.68;;;;;;;;;;5008366;28;20052;-52
2021/10/01 10:55:28;;;;;;;14.95;10.70;;;;;;;;;;5007966;28;20521;-49
2021/10/01 10:57:55;;;;;;;14.80;10.00;;;;;;;;;;4990994;28;20085;-49
2021/10/01 11:00:30;;;;;;;15.07;9.85;;;25.50;99.90;;;;;;5011254;28;20037;-48
2021/10/01 11:03:28;;;;;;;16.02;10.32;;;;;;;;;;5008005;28;20081;-50
2021/10/01 11:06:13;;;;;;;18.00;10.43;;;;;;;;;;4989790;28;20038;-51
2021/10/01 11:08:44;;;;;;;19.15;9.75;;;;;;;;;;4990494;28;20042;-48
2021/10/01 11:11:28;;;;;;;18.67;10.02;;;;;;;;;;4970042;28;20188;-50
2021/10/01 11:14:13;;;;;;;14.80;10.90;;;;;;;;;;4990176;28;20418;-49
2021/10/01 11:16:39;;;;;;;16.33;11.02;;;;;;;;;;4985790;28;20041;-49
2021/10/01 11:19:05;;;;;;;15.43;8.63;;;26.30;98.20;;;;;;4963885;28;20133;-49
2021/10/01 11:21:36;;;;;;;13.18;8.40;;;;;;;;;;4987556;28;20043;-52
2021/10/01 11:24:11;;;;;;;16.67;7.90;;;;;;;;;;4989125;28;20062;-49
2021/10/01 11:26:49;;;;;;;10.85;7.45;;;;;;;;;;4979106;28;20031;-50
2021/10/01 11:29:23;;;;;;;15.90;9.02;;;24.70;81.70;;;;;;4984915;28;20030;-49
2021/10/01 11:32:14;;;;;;;14.43;9.35;;;24.60;92.40;;;;;;4984313;28;20098;-51
2021/10/01 11:34:46;;;;;;;12.02;6.05;;;25.10;92.00;;;;;;4982644;28;20030;-50
2021/10/01 11:37:32;;;;;;;8.93;6.90;;;25.30;91.40;;;;;;4976222;28;20030;-51
2021/10/01 11:40:09;;;;;;;18.15;9.20;;;24.80;88.00;;;;;;4983086;28;20502;-49
2021/10/01 11:42:42;;;;;;;15.40;8.93;;;;;;;;;;4988889;28;20038;-51
2021/10/01 11:45:08;;;;;;;13.20;7.07;;;;;;;;;;4989980;28;20046;-48
2021/10/01 11:47:35;;;;;;;16.17;9.15;;;;;;;;;;4990881;28;20034;-48
2021/10/01 11:50:01;;;;;;;11.43;7.65;;;;;;;;;;4994887;28;20034;-47
2021/10/01 11:52:28;;;;;;;14.60;7.32;;;;;;;;;;4987866;28;20065;-47
2021/10/01 11:54:54;;;;;;;12.00;7.80;;;;;;;;;;4970572;28;20049;-48
2021/10/01 11:57:21;;;;;;;12.00;7.90;;;;;;;;;;4993604;28;20042;-49
2021/10/01 12:00:03;;;;;;;8.75;6.28;;;;;;;;;;4993287;28;20034;-48
2021/10/01 12:02:35;;;;;;;10.90;6.90;;;;;;;;;;4989005;28;20046;-49
2021/10/01 12:05:01;;;;;;;;;;;;;;;;;;4993649;28;20038;-49
2021/10/01 12:07:27;;;;;;;11.27;7.28;;;;;;;;;;4992727;28;20273;-48
2021/10/01 12:10:06;;;;;;;14.13;8.45;;;;;;;;;;4989786;28;20448;-47
2021/10/01 12:12:33;;;;;;;10.85;7.63;;;;;;;;;;4979053;28;20132;-49
2021/10/01 12:14:59;;;;;;;9.65;8.35;;;;;;;;;;5010655;28;20454;-47
2021/10/01 12:17:25;;;;;;;9.82;7.28;;;;;;;;;;5014671;28;20025;-48
2021/10/01 12:19:51;;;;;;;11.10;8.52;;;;;;;;;;4988574;28;20526;-48
2021/10/01 12:22:18;;;;;;;16.83;9.32;;;;;;;;;;5010143;28;20129;-48
2021/10/01 12:24:54;;;;;;;13.45;8.38;;;23.50;84.30;;;;;;5013141;28;20332;-48
2021/10/01 12:27:39;;;;;;;15.73;9.38;;;23.40;92.70;;;;;;5012747;28;20038;-49
2021/10/01 12:30:06;;;;;;;8.82;6.75;;;;;;;;;;5013103;28;20111;-48
2021/10/01 12:32:33;;;;;;;16.35;10.02;;;22.70;91.30;;;;;;5011121;28;20389;-53
2021/10/01 12:34:59;;;;;;;15.70;9.65;;;22.60;90.40;;;;;;5010811;28;20026;-49
2021/10/01 12:37:30;;;;;;;14.43;8.27;;;23.00;90.30;;;;;;5010063;28;20036;-49
2021/10/01 12:39:58;;;;;;;16.20;9.73;;;23.10;90.50;;;;;;5006038;28;20145;-51
2021/10/01 12:42:28;;;;;;;14.50;9.18;;;23.00;91.50;;;;;;4993887;28;20572;-50
2021/10/01 12:45:09;;;;;;;16.05;9.25;;;22.90;89.60;;;;;;5004254;28;20072;-49
2021/10/01 12:47:38;;;;;;;13.98;10.13;;;23.00;89.30;;;;;;5009821;28;20036;-53
2021/10/01 12:50:11;;;;;;;13.48;9.55;;;23.20;90.00;;;;;;4994517;28;20050;-50
2021/10/01 12:52:39;;;;;;;14.23;8.40;;;23.10;89.30;;;;;;4995704;28;20533;-51
2021/10/01 12:55:12;;;;;;;15.77;9.88;;;23.00;88.60;;;;;;5009922;28;20030;-47
2021/10/01 12:57:45;;;;;;;14.27;9.02;;;;;;;;;;5011469;28;20108;-47
2021/10/01 13:00:21;;;;;;;15.57;9.77;;;23.20;83.80;;;;;;5010453;28;20026;-49
2021/10/01 13:03:00;;;;;;;13.27;9.65;;;23.30;85.50;;;;;;5009205;28;20022;-49
2021/10/01 13:05:29;;;;;;;14.38;10.23;;;23.20;87.80;;;;;;5007610;28;20028;-50
2021/10/01 13:07:58;;;;;;;13.38;9.32;;;23.00;89.90;;;;;;5005279;28;20037;-47
2021/10/01 13:10:38;;;;;;;15.13;10.18;;;22.80;87.90;;;;;;5004523;28;20067;-49
2021/10/01 13:13:16;;;;;;;14.02;10.45;;;22.60;91.90;;;;;;4988656;28;20069;-50
2021/10/01 13:15:57;;;;;;;16.52;9.93;;;22.60;92.80;;;;;;4988035;28;20549;-49
2021/10/01 13:18:29;;;;;;;14.40;9.40;;;;;;;;;;4988834;28;20026;-49
2021/10/01 13:21:06;;;;;;;19.73;9.25;;;;;;;;;;4989718;28;20040;-48
2021/10/01 13:23:33;;;;;;;13.52;10.40;;;;;;;;;;4958587;28;20077;-47
2021/10/01 13:26:09;;;;;;;15.15;10.70;;;;;;;;;;4956226;28;20479;-49
2021/10/01 13:28:34;;;;;;;13.30;9.90;;;22.40;99.70;;;;;;4990192;28;20161;-49
2021/10/01 13:31:00;;;;;;;19.05;10.32;;;22.30;98.80;;;;;;4989908;28;20529;-47
2021/10/01 13:33:27;;;;;;;11.57;7.22;;;;;;;;;;4985710;28;20027;-48
2021/10/01 13:35:55;;;;;;;15.13;9.45;;;22.10;98.50;;;;;;4958769;28;20046;-50
2021/10/01 13:38:27;;;;;;;10.73;9.50;;;22.40;98.40;;;;;;4987665;28;20046;-47
2021/10/01 13:40:53;;;;;;;16.55;9.95;;;22.80;99.60;;;;;;4977101;28;20415;-49
2021/10/01 13:43:19;;;;;;;14.95;9.02;;;23.40;91.00;;;;;;4985331;28;20034;-50
2021/10/01 13:45:45;;;;;;;12.65;8.80;;;;;;;;;;4992718;28;20034;-49
2021/10/01 13:48:12;;;;;;;10.95;9.68;;;23.70;90.20;;;;;;5010652;28;20032;-50
2021/10/01 13:50:39;;;;;;;10.65;9.25;;;23.60;90.90;;;;;;4994610;28;20053;-51
2021/10/01 13:53:05;;;;;;;16.10;8.68;;;23.60;91.10;;;;;;4988192;28;20051;-49
2021/10/01 13:55:31;;;;;;;10.63;8.93;;;23.70;93.00;;;;;;4954014;28;20136;-50
2021/10/01 13:57:57;;;;;;;13.23;9.20;;;23.60;93.10;;;;;;4959774;28;20133;-50
2021/10/01 14:00:24;;;;;;;14.40;8.73;;;23.30;93.30;;;;;;5010447;28;20088;-50
2021/10/01 14:02:50;;;;;;;9.05;7.45;;;23.40;93.30;;;;;;5011040;28;20042;-49
2021/10/01 14:05:16;;;;;;;12.55;8.25;;;23.40;93.10;;;;;;5010553;28;20037;-51
2021/10/01 14:07:42;;;;;;;10.95;8.05;;;23.30;93.00;;;;;;5008302;28;20634;-50
2021/10/01 14:10:13;;;;;;;11.20;8.85;;;23.00;92.80;;;;;;4992049;28;20121;-51
2021/10/01 14:12:41;;;;;;;10.77;7.00;;;23.20;94.90;;;;;;5005611;28;20030;-51
2021/10/01 14:15:07;;;;;;;11.52;7.85;;;23.40;94.90;;;;;;5009474;28;20037;-50
2021/10/01 14:17:33;;;;;;;12.00;8.18;;;23.30;95.20;;;;;;4992426;28;20049;-50
2021/10/01 14:19:59;;;;;;;9.68;7.57;;;23.60;91.00;;;;;;5008765;28;20371;-50
2021/10/01 14:22:25;;;;;;;14.48;7.10;;;;;;;;;;4992008;28;20088;-49
2021/10/01 14:24:51;;;;;;;11.35;7.60;;;;;;;;;;5008624;28;20042;-50
2021/10/01 14:27:17;;;;;;;10.80;8.00;;;23.50;99.70;;;;;;5002468;28;20037;-51
2021/10/01 14:29:43;;;;;;;15.85;8.57;;;;;;;;;;4993203;28;20038;-50
2021/10/01 14:32:10;;;;;;;12.55;7.68;;;;;;;;;;5005782;28;20038;-50
2021/10/01 14:34:36;;;;;;;10.82;7.47;;;22.70;83.60;;;;;;4992249;28;20068;-51